createdAt,value
2018-04-02T00:00:22.069Z,66.70
2018-04-02T00:02:49.529Z,75.80
2018-04-02T00:05:16.977Z,70.45
2018-04-02T00:07:44.507Z,70.80
2018-04-02T00:10:11.943Z,67.82
2018-04-02T00:12:39.422Z,69.62
2018-04-02T00:15:06.876Z,70.57
2018-04-02T00:17:34.485Z,72.85
2018-04-02T00:20:01.923Z,79.22
2018-04-02T00:22:29.364Z,83.45
2018-04-02T00:24:57.340Z,73.85
2018-04-02T00:27:24.785Z,76.12
2018-04-02T00:29:52.236Z,83.87
2018-04-02T00:32:19.696Z,78.03
2018-04-02T00:34:47.166Z,76.07
2018-04-02T00:37:14.609Z,81.80
2018-04-02T00:39:42.303Z,79.10
2018-04-02T00:42:09.744Z,84.05
2018-04-02T00:44:42.138Z,81.57
2018-04-02T00:47:09.611Z,83.87
2018-04-02T00:49:37.066Z,83.87
2018-04-02T00:52:04.512Z,90.20
2018-04-02T00:54:32.207Z,94.47
2018-04-02T00:56:59.621Z,94.40
2018-04-02T00:59:27.189Z,83.95
2018-04-02T01:01:54.649Z,81.15
2018-04-02T01:04:22.094Z,80.80
2018-04-02T01:06:49.548Z,87.07
2018-04-02T01:09:17.195Z,88.43
2018-04-02T01:11:44.643Z,88.82
2018-04-02T01:14:12.075Z,88.35
2018-04-02T01:16:39.536Z,88.30
2018-04-02T01:19:07.012Z,87.45
2018-04-02T01:21:34.505Z,87.72
2018-04-02T01:24:02.622Z,85.50
2018-04-02T01:26:30.960Z,87.32
2018-04-02T01:28:58.414Z,90.32
2018-04-02T01:31:25.876Z,91.53
2018-04-02T01:33:53.325Z,103.00
2018-04-02T01:36:20.796Z,93.43
2018-04-02T01:38:48.489Z,88.10
2018-04-02T01:41:16.803Z,87.88
2018-04-02T01:55:12.340Z,100.18
2018-04-02T01:57:39.878Z,107.78
2018-04-02T02:00:19.300Z,91.97
2018-04-02T02:02:46.776Z,92.47
2018-04-02T02:05:14.225Z,94.37
2018-04-02T02:07:41.698Z,92.95
2018-04-02T02:10:09.140Z,96.15
2018-04-02T02:12:36.671Z,97.70
2018-04-02T02:15:04.149Z,114.12
2018-04-02T02:17:31.600Z,98.22
2018-04-02T02:19:59.053Z,136.48
2018-04-02T02:22:26.529Z,108.45
2018-04-02T02:24:53.976Z,104.07
2018-04-02T02:27:21.665Z,109.30
2018-04-02T02:38:22.073Z,92.47
2018-04-02T02:40:50.428Z,99.87
2018-04-02T02:43:17.876Z,103.60
2018-04-02T02:45:45.365Z,103.43
2018-04-02T02:48:13.610Z,102.57
2018-04-02T02:59:37.642Z,93.85
2018-04-02T03:02:05.089Z,101.75
2018-04-02T03:04:33.328Z,113.18
2018-04-02T03:07:01.533Z,125.87
2018-04-02T03:09:29.011Z,97.43
2018-04-02T03:11:56.453Z,108.93
2018-04-02T03:14:24.064Z,104.18
2018-04-02T03:16:52.276Z,118.68
2018-04-02T03:19:25.844Z,125.57
2018-04-02T03:21:53.248Z,106.20
2018-04-02T03:24:20.720Z,104.22
2018-04-02T03:27:06.734Z,116.97
2018-04-02T03:29:34.316Z,110.90
2018-04-02T03:32:02.527Z,109.12
2018-04-02T03:34:30.005Z,112.37
2018-04-02T03:36:57.457Z,126.68
2018-04-02T03:39:24.964Z,104.60
2018-04-02T03:41:52.387Z,105.20
2018-04-02T03:44:20.348Z,102.72
2018-04-02T03:46:47.816Z,106.25
2018-04-02T03:49:15.253Z,105.75
2018-04-02T03:51:42.759Z,107.47
2018-04-02T03:54:10.194Z,111.30
2018-04-02T03:56:37.648Z,104.63
2018-04-02T03:59:05.259Z,104.10
2018-04-02T04:01:32.700Z,109.53
2018-04-02T04:04:00.994Z,110.30
2018-04-02T04:06:28.453Z,99.28
2018-04-02T04:08:55.897Z,111.07
2018-04-02T04:11:24.128Z,102.00
2018-04-02T04:13:51.580Z,109.43
2018-04-02T04:16:19.182Z,102.95
2018-04-02T04:18:47.396Z,102.38
2018-04-02T04:21:14.877Z,107.07
2018-04-02T04:23:42.334Z,98.20
2018-04-02T04:26:10.606Z,143.00
2018-04-02T04:28:38.045Z,124.75
2018-04-02T04:31:05.724Z,96.40
2018-04-02T04:33:33.179Z,95.68
2018-04-02T04:36:00.608Z,93.50
2018-04-02T04:38:33.033Z,94.68
2018-04-02T04:41:00.497Z,95.93
2018-04-02T04:43:27.935Z,88.68
2018-04-02T04:46:01.638Z,90.47
2018-04-02T04:48:29.105Z,101.03
2018-04-02T04:50:56.695Z,106.63
2018-04-02T04:53:25.459Z,121.78
2018-04-02T04:55:53.158Z,119.22
2018-04-02T04:58:27.710Z,127.68
2018-04-02T05:06:56.095Z,127.03
2018-04-02T05:09:23.672Z,119.15
2018-04-02T05:11:51.391Z,149.45
2018-04-02T05:14:19.050Z,128.57
2018-04-02T05:16:47.823Z,122.53
2018-04-02T05:19:15.616Z,97.82
2018-04-02T05:21:43.854Z,116.60
2018-04-02T05:24:22.195Z,84.47
2018-04-02T05:26:49.637Z,84.40
2018-04-02T05:29:17.137Z,88.87
2018-04-02T05:31:45.353Z,80.18
2018-04-02T05:34:30.133Z,79.37
2018-04-02T05:36:57.578Z,83.45
2018-04-02T05:39:25.197Z,76.85
2018-04-02T05:41:53.683Z,81.50
2018-04-02T05:44:21.162Z,81.45
2018-04-02T05:46:48.605Z,83.10
2018-04-02T05:49:16.070Z,81.15
2018-04-02T05:51:56.268Z,81.93
2018-04-02T05:54:23.737Z,76.18
2018-04-02T05:56:51.203Z,78.90
2018-04-02T05:59:18.757Z,78.15
2018-04-02T06:13:15.544Z,72.55
2018-04-02T06:15:43.038Z,74.95
2018-04-02T06:18:11.317Z,102.43
2018-04-02T06:20:39.772Z,73.78
2018-04-02T06:23:07.220Z,77.07
2018-04-02T06:25:34.702Z,75.62
2018-04-02T06:28:02.150Z,76.75
2018-04-02T06:30:29.789Z,80.53
2018-04-02T06:32:57.251Z,74.87
2018-04-02T06:35:24.734Z,72.70
2018-04-02T06:37:52.498Z,72.20
2018-04-02T06:40:19.984Z,69.95
2018-04-02T06:42:48.205Z,73.95
2018-04-02T06:45:15.745Z,69.40
2018-04-02T06:47:43.204Z,70.57
2018-04-02T06:50:10.653Z,67.97
2018-04-02T06:52:38.323Z,69.87
2018-04-02T06:55:05.769Z,68.22
2018-04-02T06:57:34.008Z,67.43
2018-04-02T07:00:02.785Z,69.47
2018-04-02T07:02:30.240Z,68.62
2018-04-02T07:04:57.719Z,70.57
2018-04-02T07:10:33.777Z,67.95
2018-04-02T07:13:01.269Z,65.00
2018-04-02T07:15:28.705Z,66.43
2018-04-02T07:17:56.166Z,66.50
2018-04-02T07:20:23.603Z,64.57
2018-04-02T07:31:25.081Z,61.03
2018-04-02T07:33:52.616Z,58.38
2018-04-02T07:36:28.933Z,57.80
2018-04-02T07:38:59.269Z,57.10
2018-04-02T07:41:26.729Z,53.97
2018-04-02T07:43:54.188Z,54.05
2018-04-02T07:46:21.644Z,56.58
2018-04-02T07:48:49.077Z,52.75
2018-04-02T07:51:16.608Z,53.63
2018-04-02T07:53:44.245Z,50.15
2018-04-02T07:56:11.694Z,50.30
2018-04-02T07:58:39.162Z,49.75
2018-04-02T08:01:06.661Z,48.10
2018-04-02T08:03:34.105Z,48.92
2018-04-02T08:14:38.813Z,46.13
2018-04-02T08:17:10.445Z,47.15
2018-04-02T08:19:41.553Z,46.33
2018-04-02T08:22:08.993Z,45.05
2018-04-02T08:24:36.632Z,42.10
2018-04-02T08:27:04.086Z,42.28
2018-04-02T08:29:32.298Z,43.55
2018-04-02T08:31:59.764Z,41.78
2018-04-02T08:34:27.218Z,46.85
2018-04-02T08:36:55.616Z,42.95
2018-04-02T08:39:23.839Z,41.10
2018-04-02T08:44:43.380Z,36.72
2018-04-02T08:47:26.593Z,35.17
2018-04-02T08:49:54.037Z,33.88
2018-04-02T08:52:21.505Z,34.10
2018-04-02T08:54:48.957Z,33.38
2018-04-02T08:57:16.502Z,41.60
2018-04-02T08:59:43.945Z,30.52
2018-04-02T09:02:11.518Z,39.97
2018-04-02T09:04:38.979Z,31.98
2018-04-02T09:07:06.452Z,28.62
2018-04-02T09:09:33.912Z,29.52
2018-04-02T09:12:01.372Z,29.58
2018-04-02T09:14:28.833Z,30.00
2018-04-02T09:16:56.423Z,28.45
2018-04-02T09:19:24.675Z,28.00
2018-04-02T09:21:52.136Z,30.10
2018-04-02T09:24:19.572Z,28.30
2018-04-02T09:26:47.042Z,28.02
2018-04-02T09:29:16.449Z,27.13
2018-04-02T09:31:43.885Z,27.02
2018-04-02T09:34:11.441Z,24.35
2018-04-02T09:36:38.876Z,25.25
2018-04-02T09:39:12.656Z,23.83
2018-04-02T09:44:31.019Z,24.05
2018-04-02T09:46:58.480Z,23.55
2018-04-02T09:49:26.676Z,23.65
2018-04-02T09:51:54.145Z,23.62
2018-04-02T09:54:21.620Z,23.17
2018-04-02T09:56:49.071Z,23.35
2018-04-02T09:59:16.719Z,21.42
2018-04-02T10:01:44.909Z,20.55
2018-04-02T10:04:12.349Z,21.42
2018-04-02T10:06:43.721Z,19.67
2018-04-02T10:09:11.252Z,19.62
2018-04-02T10:11:38.704Z,18.70
2018-04-02T10:14:06.145Z,17.90
2018-04-02T10:16:33.934Z,18.52
2018-04-02T10:19:01.387Z,17.25
2018-04-02T10:21:28.832Z,14.27
2018-04-02T10:23:56.434Z,15.20
2018-04-02T10:26:23.812Z,13.02
2018-04-02T10:28:51.269Z,13.13
2018-04-02T10:31:18.714Z,12.10
2018-04-02T10:33:46.354Z,10.25
2018-04-02T10:36:13.818Z,9.88
2018-04-02T10:38:41.252Z,9.75
2018-04-02T10:41:08.978Z,9.77
2018-04-02T10:43:36.456Z,10.15
2018-04-02T10:46:03.997Z,9.63
2018-04-02T10:48:32.270Z,8.20
2018-04-02T10:50:59.698Z,8.45
2018-04-02T10:53:27.128Z,8.00
2018-04-02T10:55:54.593Z,8.05
2018-04-02T10:58:22.045Z,8.93
2018-04-02T11:00:49.673Z,7.10
2018-04-02T11:06:11.525Z,7.07
2018-04-02T11:08:38.929Z,6.28
2018-04-02T11:11:06.373Z,7.45
2018-04-02T11:13:34.026Z,6.20
2018-04-02T11:16:01.471Z,6.97
2018-04-02T11:18:28.913Z,6.53
2018-04-02T11:20:58.067Z,6.37
2018-04-02T11:23:25.541Z,7.05
2018-04-02T11:25:52.977Z,10.38
2018-04-02T11:28:20.478Z,7.75
2018-04-02T11:30:48.692Z,13.73
2018-04-02T11:33:16.177Z,6.85
2018-04-02T11:35:43.620Z,9.25
2018-04-02T11:38:11.100Z,7.72
2018-04-02T11:40:38.537Z,7.43
2018-04-02T11:43:06.008Z,7.25
2018-04-02T11:45:33.452Z,8.40
2018-04-02T11:48:01.028Z,7.20
2018-04-02T11:50:28.468Z,6.45
2018-04-02T11:53:00.852Z,8.45
2018-04-02T11:55:28.292Z,7.20
2018-04-02T11:57:55.732Z,6.85
2018-04-02T12:00:23.195Z,6.05
2018-04-02T12:02:50.675Z,14.68
2018-04-02T12:05:18.120Z,6.28
2018-04-02T12:07:46.921Z,10.18
2018-04-02T12:10:14.406Z,7.30
2018-04-02T12:12:41.852Z,8.93
2018-04-02T12:15:09.292Z,6.28
2018-04-02T12:17:36.762Z,6.28
2018-04-02T12:20:04.251Z,6.50
2018-04-02T12:22:32.464Z,5.60
2018-04-02T12:25:02.633Z,7.05
2018-04-02T12:27:30.568Z,6.57
2018-04-02T12:29:59.080Z,7.65
2018-04-02T12:32:28.718Z,6.90
2018-04-02T12:34:56.353Z,6.45
2018-04-02T12:37:24.069Z,6.35
2018-04-02T12:39:51.819Z,6.55
2018-04-02T12:42:24.056Z,6.40
2018-04-02T12:44:51.514Z,6.20
2018-04-02T12:47:18.956Z,7.30
2018-04-02T12:49:46.809Z,6.90
2018-04-02T12:52:14.251Z,7.00
2018-04-02T12:54:41.694Z,6.90
2018-04-02T12:57:10.044Z,6.25
2018-04-02T12:59:38.273Z,6.30
2018-04-02T13:02:05.715Z,6.05
2018-04-02T13:04:33.356Z,6.00
2018-04-02T13:07:01.586Z,5.95
2018-04-02T13:09:29.205Z,6.57
2018-04-02T13:11:56.671Z,6.00
2018-04-02T13:14:24.096Z,6.18
2018-04-02T13:16:52.488Z,6.22
2018-04-02T13:19:19.975Z,5.93
2018-04-02T13:21:48.187Z,5.60
2018-04-02T13:24:15.624Z,6.00
2018-04-02T13:26:43.064Z,6.20
2018-04-02T13:29:10.747Z,5.70
2018-04-02T13:31:39.162Z,5.55
2018-04-02T13:34:07.372Z,5.57
2018-04-02T13:36:34.992Z,5.43
2018-04-02T13:39:02.433Z,4.82
2018-04-02T13:41:29.988Z,5.70
2018-04-02T13:43:57.474Z,4.40
2018-04-02T13:46:25.689Z,4.97
2018-04-02T13:48:53.121Z,4.47
2018-04-02T13:51:21.223Z,4.50
2018-04-02T13:53:48.657Z,4.40
2018-04-02T13:56:16.084Z,4.62
2018-04-02T13:58:49.241Z,4.10
2018-04-02T14:01:16.720Z,3.70
2018-04-02T14:03:44.162Z,3.40
2018-04-02T14:06:11.601Z,3.28
2018-04-02T14:08:45.334Z,3.22
2018-04-02T14:11:12.773Z,3.40
2018-04-02T14:13:40.227Z,3.37
2018-04-02T14:16:07.799Z,3.33
2018-04-02T14:18:36.066Z,3.35
2018-04-02T14:21:03.508Z,3.15
2018-04-02T14:23:37.028Z,3.08
2018-04-02T14:26:04.481Z,3.05
2018-04-02T14:28:32.121Z,3.28
2018-04-02T14:30:59.556Z,3.25
2018-04-02T14:33:26.993Z,3.10
2018-04-02T14:35:55.260Z,3.70
2018-04-02T14:38:22.720Z,4.90
2018-04-02T14:40:50.157Z,3.85
2018-04-02T14:43:17.708Z,3.80
2018-04-02T14:45:45.152Z,4.22
2018-04-02T14:48:12.613Z,4.25
2018-04-02T14:50:40.051Z,4.80
2018-04-02T14:53:07.923Z,4.55
2018-04-02T14:55:35.361Z,4.65
2018-04-02T14:58:02.842Z,4.25
2018-04-02T15:00:31.054Z,4.18
2018-04-02T15:02:58.484Z,3.70
2018-04-02T15:05:26.006Z,3.80
2018-04-02T15:07:54.205Z,3.40
2018-04-02T15:10:21.732Z,3.70
2018-04-02T15:12:49.140Z,3.55
2018-04-02T15:15:16.598Z,3.70
2018-04-02T15:17:44.040Z,3.75
2018-04-02T15:20:12.260Z,3.17
2018-04-02T15:22:39.708Z,3.25
2018-04-02T15:25:07.358Z,3.17
2018-04-02T15:27:34.801Z,2.90
2018-04-02T15:30:02.237Z,2.80
2018-04-02T15:32:29.696Z,3.00
2018-04-02T15:34:57.180Z,3.00
2018-04-02T15:37:26.252Z,2.90
2018-04-02T15:39:53.817Z,3.50
2018-04-02T15:42:21.258Z,2.90
2018-04-02T15:44:48.765Z,3.20
2018-04-02T15:47:16.209Z,3.83
2018-04-02T15:49:43.654Z,3.12
2018-04-02T15:52:11.109Z,3.85
2018-04-02T15:54:38.549Z,3.60
2018-04-02T15:57:05.994Z,4.40
2018-04-02T15:59:34.738Z,4.45
2018-04-02T16:02:02.169Z,5.00
2018-04-02T16:04:30.373Z,5.07
2018-04-02T16:06:57.833Z,5.57
2018-04-02T16:09:25.276Z,5.75
2018-04-02T16:11:52.837Z,5.10
2018-04-02T16:14:20.281Z,5.40
2018-04-02T16:16:47.716Z,5.87
2018-04-02T16:19:15.222Z,5.82
2018-04-02T16:21:42.665Z,5.85
2018-04-02T16:24:10.105Z,5.70
2018-04-02T16:26:37.568Z,5.35
2018-04-02T16:29:05.012Z,5.82
2018-04-02T16:31:32.445Z,5.20
2018-04-02T16:34:00.829Z,5.50
2018-04-02T16:36:29.032Z,4.82
2018-04-02T16:38:56.668Z,5.50
2018-04-02T16:41:24.185Z,5.43
2018-04-02T16:43:51.673Z,4.80
2018-04-02T16:46:19.884Z,5.22
2018-04-02T16:48:47.325Z,5.12
2018-04-02T16:51:14.884Z,5.07
2018-04-02T16:53:42.324Z,5.12
2018-04-02T16:56:10.668Z,4.90
2018-04-02T16:58:38.129Z,5.47
2018-04-02T17:01:06.474Z,4.72
2018-04-02T17:03:37.884Z,4.68
2018-04-02T17:06:06.144Z,4.35
2018-04-02T17:08:33.552Z,4.35
2018-04-02T17:11:01.089Z,3.90
2018-04-02T17:13:29.291Z,3.85
2018-04-02T17:15:57.631Z,3.80
2018-04-02T17:18:25.845Z,11.95
2018-04-02T17:20:53.288Z,7.22
2018-04-02T17:23:20.744Z,6.70
2018-04-02T17:25:48.204Z,7.75
2018-04-02T17:28:15.650Z,8.55
2018-04-02T17:30:44.103Z,4.40
2018-04-02T17:33:11.555Z,4.65
2018-04-02T17:35:38.997Z,4.10
2018-04-02T17:38:06.464Z,4.53
2018-04-02T17:40:33.932Z,4.30
2018-04-02T17:43:01.389Z,4.00
2018-04-02T17:45:29.044Z,4.50
2018-04-02T17:47:56.501Z,7.07
2018-04-02T17:50:23.940Z,4.85
2018-04-02T17:52:51.552Z,4.45
2018-04-02T17:55:18.940Z,4.47
2018-04-02T17:57:47.615Z,4.97
2018-04-02T18:00:15.245Z,4.93
2018-04-02T18:02:43.460Z,5.18
2018-04-02T18:05:11.109Z,5.97
2018-04-02T18:07:38.596Z,14.40
2018-04-02T18:10:06.040Z,8.40
2018-04-02T18:12:33.566Z,7.93
2018-04-02T18:15:01.777Z,5.45
2018-04-02T18:17:29.381Z,4.35
2018-04-02T18:19:56.824Z,4.55
2018-04-02T18:22:24.257Z,4.75
2018-04-02T18:24:51.746Z,5.25
2018-04-02T18:27:19.201Z,4.43
2018-04-02T18:29:46.657Z,4.87
2018-04-02T18:32:14.230Z,4.93
2018-04-02T18:34:41.669Z,4.30
2018-04-02T18:37:09.112Z,4.35
2018-04-02T18:39:36.972Z,4.47
2018-04-02T18:42:04.405Z,5.20
2018-04-02T18:44:31.844Z,5.50
2018-04-02T18:47:00.430Z,5.07
2018-04-02T18:49:28.841Z,5.50
2018-04-02T18:51:56.293Z,5.85
2018-04-02T18:54:23.803Z,5.70
2018-04-02T18:56:51.241Z,6.22
2018-04-02T18:59:18.778Z,6.15
2018-04-02T19:01:46.317Z,6.22
2018-04-02T19:04:14.577Z,5.82
2018-04-02T19:06:41.401Z,6.07
2018-04-02T19:09:08.825Z,5.50
2018-04-02T19:11:36.440Z,6.50
2018-04-02T19:14:04.664Z,5.97
2018-04-02T19:16:32.648Z,6.37
2018-04-02T19:19:00.305Z,6.47
2018-04-02T19:21:28.060Z,6.60
2018-04-02T19:23:55.504Z,6.57
2018-04-02T19:26:22.952Z,7.80
2018-04-02T19:28:50.461Z,6.60
2018-04-02T19:31:17.917Z,8.00
2018-04-02T19:33:45.353Z,7.70
2018-04-02T19:36:12.842Z,8.18
2018-04-02T19:38:40.339Z,7.40
2018-04-02T19:41:08.113Z,6.57
2018-04-02T19:43:35.550Z,6.62
2018-04-02T19:46:02.984Z,9.13
2018-04-02T19:48:31.537Z,7.30
2018-04-02T19:50:59.084Z,8.50
2018-04-02T19:53:26.521Z,6.85
2018-04-02T19:55:53.997Z,6.87
2018-04-02T19:58:21.430Z,7.55
2018-04-02T20:00:49.657Z,8.32
2018-04-02T20:03:17.105Z,7.57
2018-04-02T20:05:44.631Z,6.55
2018-04-02T20:08:12.945Z,6.78
2018-04-02T20:10:40.426Z,7.55
2018-04-02T20:13:08.634Z,5.40
2018-04-02T20:15:36.085Z,5.18
2018-04-02T20:18:04.494Z,5.60
2018-04-02T20:20:32.717Z,5.68
2018-04-02T20:23:01.355Z,5.85
2018-04-02T20:25:28.724Z,5.70
2018-04-02T20:27:56.162Z,5.70
2018-04-02T20:30:28.543Z,5.93
2018-04-02T20:32:56.732Z,5.30
2018-04-02T20:35:24.171Z,4.82
2018-04-02T20:37:51.661Z,5.72
2018-04-02T20:40:19.093Z,5.22
2018-04-02T20:42:46.562Z,4.87
2018-04-02T20:45:13.992Z,5.05
2018-04-02T20:47:41.449Z,5.25
2018-04-02T20:50:08.881Z,5.00
2018-04-02T20:52:36.455Z,5.30
2018-04-02T20:55:03.884Z,5.28
2018-04-02T20:57:32.108Z,5.68
2018-04-02T20:59:59.541Z,4.75
2018-04-02T21:02:27.000Z,5.28
2018-04-02T21:04:54.440Z,5.30
2018-04-02T21:07:21.960Z,4.75
2018-04-02T21:09:49.401Z,5.28
2018-04-02T21:12:19.792Z,5.12
2018-04-02T21:14:47.220Z,5.18
2018-04-02T21:17:15.424Z,5.87
2018-04-02T21:19:49.067Z,5.25
2018-04-02T21:22:16.513Z,4.90
2018-04-02T21:24:44.100Z,4.82
2018-04-02T21:27:14.235Z,4.20
2018-04-02T21:29:41.701Z,4.93
2018-04-02T21:32:09.933Z,4.95
2018-04-02T21:34:37.456Z,4.60
2018-04-02T21:37:07.546Z,4.70
2018-04-02T21:39:37.116Z,4.70
2018-04-02T21:42:04.614Z,4.60
2018-04-02T21:44:45.270Z,4.10
2018-04-02T21:47:12.726Z,4.68
2018-04-02T21:49:40.188Z,4.72
2018-04-02T21:52:07.626Z,4.40
2018-04-02T21:54:35.263Z,5.00
2018-04-02T21:57:02.691Z,4.55
2018-04-02T21:59:30.146Z,4.80
2018-04-02T22:01:58.355Z,4.80
2018-04-02T22:04:25.809Z,5.00
2018-04-02T22:07:00.046Z,4.97
2018-04-02T22:09:27.698Z,5.15
2018-04-02T22:11:55.129Z,4.80
2018-04-02T22:14:22.557Z,4.25
2018-04-02T22:16:50.782Z,4.50
2018-04-02T22:19:18.228Z,4.68
2018-04-02T22:21:46.325Z,4.87
2018-04-02T22:24:13.780Z,4.40
2018-04-02T22:26:41.300Z,5.03
2018-04-02T22:29:14.349Z,4.22
2018-04-02T22:31:42.622Z,3.95
2018-04-02T22:34:10.063Z,4.28
2018-04-02T22:36:37.497Z,4.70
2018-04-02T22:39:05.977Z,4.45
2018-04-02T22:41:33.515Z,4.03
2018-04-02T22:44:00.943Z,4.43
2018-04-02T22:46:28.461Z,3.80
2018-04-02T22:48:55.898Z,3.78
2018-04-02T22:51:23.370Z,4.25
2018-04-02T22:53:50.809Z,4.10
2018-04-02T22:56:31.192Z,4.20
2018-04-02T22:58:58.630Z,3.80
2018-04-02T23:01:26.085Z,4.00
2018-04-02T23:03:53.528Z,4.20
2018-04-02T23:06:21.753Z,4.25
2018-04-02T23:08:49.180Z,4.68
2018-04-02T23:11:16.712Z,4.15
2018-04-02T23:13:44.917Z,4.62
2018-04-02T23:19:10.759Z,4.20
2018-04-02T23:21:38.213Z,4.30
2018-04-02T23:24:05.684Z,4.55
2018-04-02T23:26:33.102Z,4.40
2018-04-02T23:29:01.392Z,3.97
2018-04-02T23:31:28.853Z,4.40
2018-04-02T23:33:56.348Z,4.70
2018-04-02T23:36:23.785Z,4.47
2018-04-02T23:38:51.633Z,4.40
2018-04-02T23:44:21.520Z,4.40
2018-04-02T23:46:48.948Z,4.78
2018-04-02T23:49:16.525Z,4.78
2018-04-02T23:51:43.963Z,4.35
2018-04-02T23:54:11.401Z,4.32
2018-04-02T23:56:44.125Z,4.05
2018-04-02T23:59:11.557Z,4.20
